Time;durP1;ratioP1;P1;durP2;ratioP2;P2;SDS_P1;SDS_P2;PMS_P1;PMS_P2;Temp;Humidity;BMP_temperature;BMP_pressure;BME280_temperature;BME280_humidity;BME280_pressure;Samples;Min_cycle;Max_cycle;Signal;HPM_P1;HPM_P2
2022/05/03 00:00:25;;;;;;;8.82;6.40;;;;;;;14.69;60.12;97685.78;12657114;23;20367;-80
2022/05/03 05:23:34;;;;;;;11.20;6.30;;;;;;;15.34;60.66;97660.09;12641764;23;19917;-80
2022/05/03 05:28:57;;;;;;;8.82;6.30;;;;;;;15.41;60.35;97659.78;12648021;23;20014;-79
2022/05/03 05:34:37;;;;;;;8.38;5.32;;;;;;;15.61;59.88;97648.75;12685035;23;20010;-79
2022/05/03 05:40:16;;;;;;;9.13;6.05;;;;;;;15.64;58.87;97658.78;12654048;23;20026;-79
2022/05/03 05:45:39;;;;;;;8.35;5.30;;;;;;;15.68;58.62;97658.94;12679186;23;20085;-79
2022/05/03 05:51:10;;;;;;;11.05;6.00;;;;;;;15.63;58.70;97667.81;12692933;23;20025;-79
2022/05/03 05:56:31;;;;;;;9.32;5.05;;;;;;;15.71;58.16;97671.00;12738548;23;20013;-81
2022/05/03 06:01:52;;;;;;;6.03;5.00;;;;;;;15.85;58.46;97674.50;12725032;23;20017;-80
2022/05/03 06:07:12;;;;;;;7.13;5.38;;;;;;;16.18;57.60;97673.84;12658478;23;20021;-83
2022/05/03 06:12:50;;;;;;;10.55;5.93;;;;;;;16.39;56.61;97681.09;12639766;23;20606;-79
2022/05/03 06:18:12;;;;;;;8.55;6.05;;;;;;;16.53;56.22;97683.81;12614646;23;20029;-81
2022/05/03 06:23:33;;;;;;;9.63;6.72;;;;;;;16.63;55.66;97684.25;12634693;23;20014;-79
2022/05/03 06:28:53;;;;;;;9.43;6.07;;;;;;;16.87;55.58;97687.41;12634303;23;20025;-80
2022/05/03 06:34:14;;;;;;;7.43;6.25;;;;;;;17.24;54.61;97694.56;12654909;23;20022;-83
2022/05/03 06:39:36;;;;;;;11.85;8.00;;;;;;;17.72;53.77;97701.44;12655034;23;20123;-84
2022/05/03 06:44:59;;;;;;;9.00;6.35;;;;;;;18.19;52.69;97703.91;12655439;23;20033;-82
2022/05/03 06:50:19;;;;;;;11.13;6.30;;;;;;;18.68;51.45;97705.69;12616873;23;20374;-81
2022/05/03 06:55:40;;;;;;;8.75;6.30;;;;;;;19.32;50.78;97714.22;12656678;23;20021;-80
2022/05/03 07:01:08;;;;;;;9.35;6.57;;;;;;;20.12;49.52;97712.50;12656617;23;20025;-80
2022/05/03 07:06:29;;;;;;;9.20;6.55;;;;;;;21.17;47.66;97722.47;12619337;23;20021;-79
2022/05/03 07:11:50;;;;;;;14.07;7.03;;;;;;;22.41;44.64;97724.69;12620000;23;20018;-82
2022/05/03 07:22:45;;;;;;;10.15;6.38;;;;;;;22.90;41.74;97723.53;12636825;23;20018;-81
2022/05/03 07:22:51;;;;;;;7.35;6.30;;;;;;;21.61;41.57;97728.56;12645043;23;20017;-83
2022/05/03 07:28:12;;;;;;;9.82;6.43;;;;;;;21.13;43.14;97728.03;12676006;23;20014;-83
2022/05/03 07:33:32;;;;;;;8.13;6.40;;;;;;;21.09;43.27;97737.19;12615860;23;20333;-83
2022/05/03 07:38:55;;;;;;;14.00;7.23;;;;;;;21.24;42.45;97737.56;12615967;23;20029;-82
2022/05/03 07:44:16;;;;;;;9.38;7.55;;;;;;;21.52;41.98;97726.19;12636092;23;20429;-82
2022/05/03 07:49:36;;;;;;;9.48;7.20;;;;;;;22.02;41.31;97743.00;12656268;23;20022;-82
2022/05/03 07:54:57;;;;;;;10.90;7.07;;;;;;;23.26;40.40;97734.13;12635307;23;20341;-81
2022/05/03 08:00:18;;;;;;;10.60;6.72;;;;;;;24.59;38.25;97737.56;12656131;23;20018;-80
2022/05/03 08:05:41;;;;;;;11.43;7.40;;;;;;;24.94;34.35;97744.38;12617244;23;20097;-82
2022/05/03 08:11:03;;;;;;;10.15;7.00;;;;;;;24.59;35.68;97746.13;12622521;23;20021;-83
2022/05/03 08:16:26;;;;;;;9.13;6.90;;;;;;;24.99;34.15;97751.56;12635961;23;20441;-83
2022/05/03 08:21:47;;;;;;;;;;;;;;;24.75;32.03;97760.59;12657241;23;20127;-86
2022/05/03 08:27:08;;;;;;;10.40;7.90;;;;;;;24.16;32.17;97756.94;12655581;23;19918;-86
2022/05/03 08:32:28;;;;;;;11.30;7.70;;;;;;;23.84;33.44;97760.03;12655016;23;20029;-86
2022/05/03 08:43:29;;;;;;;18.20;8.32;;;;;;;24.34;32.16;97756.50;12638787;23;20369;-87
2022/05/03 08:48:54;;;;;;;8.90;7.40;;;;;;;24.50;30.80;97770.25;12635634;23;20014;-85
2022/05/03 08:54:15;;;;;;;9.35;7.07;;;;;;;24.93;30.92;97767.94;12638685;23;20025;-87
2022/05/03 08:59:36;;;;;;;10.60;7.25;;;;;;;26.21;29.28;97763.34;12619460;23;20018;-87
2022/05/03 09:04:57;;;;;;;13.27;6.80;;;;;;;27.49;28.00;97771.72;12647992;23;20021;-86
2022/05/03 09:10:25;;;;;;;10.55;6.57;;;;;;;28.09;26.42;97771.03;12629298;23;20018;-86
2022/05/03 09:15:50;;;;;;;13.32;6.53;;;;;;;28.18;26.79;97769.59;12638910;23;20022;-86
2022/05/03 09:27:18;;;;;;;10.07;5.30;;;;;;;32.43;20.64;97761.69;12661551;23;20021;-86
2022/05/03 09:32:43;;;;;;;7.68;5.20;;;;;;;36.29;18.18;97766.59;12639091;23;20025;-86
2022/05/03 09:38:04;;;;;;;8.00;4.50;;;;;;;39.12;15.96;97772.66;12618402;23;20411;-86
2022/05/03 09:43:25;;;;;;;6.68;4.35;;;;;;;41.16;14.22;97763.75;12618315;23;20449;-87
2022/05/03 09:48:54;;;;;;;9.90;4.10;;;;;;;43.85;11.35;97768.03;12637750;23;20079;-84
2022/05/03 09:54:16;;;;;;;5.90;3.90;;;;;;;45.40;9.91;97763.16;12639302;23;20453;-84
2022/05/03 09:59:38;;;;;;;8.70;3.72;;;;;;;46.06;8.83;97756.09;12637171;23;20018;-83
2022/05/03 10:04:59;;;;;;;8.80;3.03;;;;;;;43.95;8.87;97766.66;12637812;23;20046;-84
2022/05/03 10:10:24;;;;;;;9.57;3.60;;;;;;;43.45;10.03;97756.00;12618963;23;20036;-84
2022/05/03 10:21:30;;;;;;;4.97;3.28;;;;;;;39.44;11.53;97741.91;12624918;23;20017;-82
2022/05/03 10:27:07;;;;;;;5.13;2.55;;;;;;;39.85;11.23;97736.28;12593137;23;20021;-84
2022/05/03 10:32:28;;;;;;;5.63;2.45;;;;;;;43.74;9.70;97746.03;12637525;23;20021;-83
2022/05/03 10:38:00;;;;;;;7.88;2.47;;;;;;;45.39;7.21;97738.19;12637220;23;20041;-82
2022/05/03 10:43:26;;;;;;;4.40;1.90;;;;;;;44.71;7.91;97729.84;12656433;23;20052;-82
2022/05/03 10:49:14;;;;;;;7.95;2.30;;;;;;;45.22;6.85;97723.25;12617095;23;20341;-83
2022/05/03 10:55:09;;;;;;;4.32;2.38;;;;;;;43.90;7.81;97719.19;12657232;23;20022;-82
2022/05/03 11:01:08;;;;;;;3.85;2.50;;;;;;;40.20;9.36;97706.72;12637005;23;20014;-82
2022/05/03 11:06:32;;;;;;;4.88;3.05;;;;;;;36.10;11.80;97700.44;12655318;23;20538;-82
2022/05/03 11:11:55;;;;;;;4.85;3.45;;;;;;;33.95;13.45;97696.09;12639666;23;20033;-82
2022/05/03 11:17:16;;;;;;;4.20;3.60;;;;;;;31.36;16.05;97694.97;12633493;23;20022;-81
2022/05/03 11:22:37;;;;;;;5.63;4.07;;;;;;;30.55;17.37;97684.56;12633957;23;20022;-81
2022/05/03 11:27:58;;;;;;;8.20;3.38;;;;;;;29.64;17.89;97679.06;12613644;23;20484;-84
2022/05/03 11:33:20;;;;;;;;;;;;;;;28.50;20.32;97674.06;12637314;23;20022;-83
2022/05/03 11:38:41;;;;;;;;;;;;;;;28.92;19.92;97675.28;12655074;23;19927;-84
2022/05/03 11:44:09;;;;;;;6.55;3.40;;;;;;;28.22;19.60;97669.13;12657780;23;20024;-84
2022/05/03 11:49:32;;;;;;;5.25;3.10;;;;;;;27.68;20.22;97661.38;12636024;23;20017;-84
2022/05/03 12:00:44;;;;;;;5.18;3.00;;;;;;;26.45;21.47;97657.66;12642950;23;20520;-83
2022/05/03 12:06:05;;;;;;;4.63;2.80;;;;;;;25.79;22.01;97670.19;12619046;23;20097;-82
2022/05/03 12:11:26;;;;;;;4.85;2.50;;;;;;;25.81;22.52;97660.88;12633220;23;20026;-82
2022/05/03 12:16:50;;;;;;;5.93;3.50;;;;;;;26.09;22.41;97658.19;12613072;23;20102;-81
2022/05/03 12:22:12;;;;;;;4.03;2.80;;;;;;;25.55;22.74;97656.41;12635007;23;20024;-81
2022/05/03 12:27:33;;;;;;;4.70;3.17;;;;;;;25.20;23.43;97652.56;12635916;23;20141;-81
2022/05/03 12:32:54;;;;;;;3.90;3.03;;;;;;;25.06;23.18;97641.03;12656482;23;20322;-82
2022/05/03 12:38:17;;;;;;;6.97;3.67;;;;;;;24.76;24.19;97645.00;12636692;23;20022;-81
2022/05/03 12:43:38;;;;;;;6.35;3.83;;;;;;;24.34;24.51;97638.84;12617125;23;20045;-81
2022/05/03 12:49:04;;;;;;;6.97;3.85;;;;;;;24.14;25.96;97634.31;12635887;23;20021;-77
2022/05/03 12:54:25;;;;;;;4.60;3.17;;;;;;;24.12;25.83;97633.56;12644323;23;20025;-81
2022/05/03 12:59:49;;;;;;;8.35;3.67;;;;;;;24.30;26.08;97630.91;12637317;23;20097;-80
2022/05/03 13:05:11;;;;;;;5.93;3.42;;;;;;;24.80;25.25;97616.53;12639571;23;20018;-81
2022/05/03 13:10:33;;;;;;;4.47;3.47;;;;;;;24.66;25.45;97610.66;12669739;23;20017;-81
2022/05/03 13:15:54;;;;;;;8.17;3.10;;;;;;;25.05;25.55;97611.03;12638593;23;20022;-81
2022/05/03 13:21:15;;;;;;;4.00;2.63;;;;;;;25.14;25.18;97611.81;12616973;23;20018;-81
2022/05/03 13:26:36;;;;;;;3.53;2.50;;;;;;;25.24;24.89;97615.47;12636546;23;20021;-80
2022/05/03 13:31:57;;;;;;;3.13;2.53;;;;;;;25.09;24.84;97611.06;12636890;23;20449;-81
2022/05/03 13:42:58;;;;;;;3.88;2.35;;;;;;;24.57;25.28;97600.59;12645367;23;20022;-79
2022/05/03 13:48:19;;;;;;;3.75;2.65;;;;;;;24.63;25.17;97609.22;12637998;23;20090;-79
2022/05/03 13:53:40;;;;;;;4.15;2.20;;;;;;;24.87;25.02;97602.28;12636121;23;20018;-76
2022/05/03 13:59:01;;;;;;;4.55;2.42;;;;;;;25.22;24.67;97594.75;12617500;23;20022;-77
2022/05/03 14:04:23;;;;;;;6.82;2.30;;;;;;;25.20;24.04;97592.59;12617680;23;20032;-76
2022/05/03 14:09:45;;;;;;;7.50;2.40;;;;;;;25.19;24.42;97596.13;12651956;23;20029;-76
2022/05/03 14:15:06;;;;;;;4.13;2.40;;;;;;;25.54;23.86;97605.66;12657019;23;20014;-75
2022/05/03 14:20:31;;;;;;;4.15;2.88;;;;;;;25.00;23.65;97592.41;12620092;23;20045;-75
2022/05/03 14:25:52;;;;;;;5.78;3.10;;;;;;;24.52;24.28;97582.00;12636330;23;20037;-76
2022/05/03 14:32:16;;;;;;;6.60;2.45;;;;;;;24.17;24.23;97587.28;12636777;23;20072;-76
2022/05/03 14:37:37;;;;;;;4.03;2.70;;;;;;;24.08;24.25;97582.19;12676880;23;20021;-76
2022/05/03 14:43:02;;;;;;;6.13;3.33;;;;;;;24.02;24.44;97591.38;12635059;23;20337;-76
2022/05/03 14:48:22;;;;;;;4.82;2.78;;;;;;;23.87;24.32;97589.78;12656531;23;20014;-76
2022/05/03 14:53:43;;;;;;;6.55;2.42;;;;;;;23.85;24.70;97584.06;12676151;23;20025;-76
2022/05/03 15:04:44;;;;;;;3.65;2.35;;;;;;;23.52;24.63;97582.88;12623369;23;20018;-76
2022/05/03 15:10:05;;;;;;;5.20;3.03;;;;;;;23.51;24.77;97595.69;12668107;23;20022;-76
2022/05/03 15:15:26;;;;;;;8.63;3.60;;;;;;;23.22;25.40;97592.41;12698454;23;20014;-76
2022/05/03 15:20:49;;;;;;;4.60;3.30;;;;;;;22.99;25.86;97596.31;12635084;23;20111;-76
2022/05/03 15:26:10;;;;;;;6.80;3.50;;;;;;;22.69;26.98;97596.50;12676692;23;20013;-76
2022/05/03 15:31:31;;;;;;;4.57;3.22;;;;;;;22.52;27.05;97601.91;12616333;23;20319;-76
2022/05/03 15:36:52;;;;;;;4.78;3.38;;;;;;;22.30;27.08;97603.63;12656105;23;20085;-76
2022/05/03 15:42:13;;;;;;;4.78;3.30;;;;;;;22.28;27.60;97602.16;12635140;23;20025;-76
2022/05/03 15:47:34;;;;;;;5.55;3.58;;;;;;;22.09;28.15;97596.78;12655856;23;20021;-76
2022/05/03 15:52:55;;;;;;;6.47;3.42;;;;;;;22.02;28.32;97598.06;12654022;23;20478;-76
2022/05/03 15:58:16;;;;;;;7.50;2.97;;;;;;;22.05;28.51;97591.72;12634884;23;20018;-75
2022/05/03 16:03:37;;;;;;;4.25;3.00;;;;;;;21.97;29.03;97597.97;12653068;23;20025;-80
2022/05/03 16:08:59;;;;;;;4.55;2.70;;;;;;;21.93;28.95;97603.56;12697512;23;20445;-77
2022/05/03 16:14:19;;;;;;;5.63;3.00;;;;;;;21.71;29.60;97603.84;12680067;23;20014;-79
2022/05/03 16:19:40;;;;;;;5.00;2.67;;;;;;;21.61;29.31;97605.72;12658841;23;20014;-79
2022/05/03 16:25:03;;;;;;;3.92;3.10;;;;;;;21.46;29.71;97606.81;12658974;23;20017;-78
2022/05/03 16:30:24;;;;;;;4.80;3.10;;;;;;;21.41;29.97;97603.13;12640033;23;20022;-79
2022/05/03 16:35:45;;;;;;;7.05;3.20;;;;;;;21.28;29.82;97607.81;12658238;23;20018;-76
2022/05/03 16:46:46;;;;;;;8.15;2.92;;;;;;;20.82;30.78;97604.56;12641496;23;20033;-75
2022/05/03 16:52:24;;;;;;;4.97;3.20;;;;;;;20.58;30.96;97596.88;12665372;23;20430;-76
2022/05/03 16:57:45;;;;;;;4.60;3.08;;;;;;;20.41;31.43;97603.47;12658308;23;20321;-76
2022/05/03 17:03:05;;;;;;;5.95;3.58;;;;;;;20.36;31.49;97598.34;12654268;23;20021;-77
2022/05/03 17:08:26;;;;;;;7.55;2.97;;;;;;;20.29;31.80;97615.22;12617925;23;20029;-75
2022/05/03 17:13:46;;;;;;;5.85;3.60;;;;;;;20.23;31.97;97614.31;12617966;23;20303;-76
2022/05/03 17:19:07;;;;;;;7.05;3.47;;;;;;;20.13;31.78;97611.94;12657734;23;20018;-76
2022/05/03 17:24:28;;;;;;;5.90;3.33;;;;;;;20.10;31.96;97616.09;12657988;23;20472;-76
2022/05/03 17:29:48;;;;;;;5.55;3.17;;;;;;;19.99;31.93;97617.19;12637719;23;20077;-76
2022/05/03 17:35:09;;;;;;;4.97;3.10;;;;;;;19.99;32.35;97620.75;12658336;23;20014;-76
2022/05/03 17:40:30;;;;;;;4.28;3.58;;;;;;;19.97;32.81;97623.50;12658003;23;20022;-74
2022/05/03 17:45:51;;;;;;;9.43;3.63;;;;;;;19.94;32.85;97624.13;12657666;23;20025;-73
2022/05/03 17:51:12;;;;;;;8.50;4.15;;;;;;;19.84;32.97;97629.50;12636988;23;20092;-74
2022/05/03 17:56:33;;;;;;;6.72;3.67;;;;;;;19.70;33.59;97639.03;12637648;23;20433;-77
2022/05/03 18:01:54;;;;;;;8.00;3.88;;;;;;;19.64;33.70;97633.16;12658167;23;20333;-76
2022/05/03 18:07:21;;;;;;;6.53;4.15;;;;;;;19.54;34.10;97643.44;12640447;23;20014;-75
2022/05/03 18:12:42;;;;;;;8.35;4.90;;;;;;;19.48;34.38;97643.97;12659122;23;20452;-75
2022/05/03 18:18:03;;;;;;;6.82;3.67;;;;;;;19.35;34.66;97650.63;12637633;23;20018;-76
2022/05/03 18:23:24;;;;;;;5.38;3.72;;;;;;;19.25;34.77;97658.81;12656955;23;20380;-76
2022/05/03 18:28:45;;;;;;;6.28;4.05;;;;;;;19.20;35.21;97660.03;12669273;23;20388;-76
2022/05/03 18:34:08;;;;;;;9.52;3.60;;;;;;;19.12;35.64;97664.06;12676745;23;20093;-75
2022/05/03 18:39:31;;;;;;;7.78;3.90;;;;;;;19.08;35.47;97666.03;12617109;23;20022;-76
2022/05/03 18:44:53;;;;;;;14.55;9.48;;;;;;;19.06;35.79;97669.53;12616620;23;20464;-76
2022/05/03 18:50:15;;;;;;;7.55;4.32;;;;;;;19.01;36.03;97682.09;12657354;23;20014;-76
2022/05/03 18:55:43;;;;;;;7.60;4.75;;;;;;;18.99;36.25;97684.84;12676129;23;20040;-76
2022/05/03 19:01:05;;;;;;;7.90;4.60;;;;;;;18.92;36.34;97686.03;12658630;23;20018;-75
2022/05/03 19:06:29;;;;;;;6.00;4.13;;;;;;;18.91;36.34;97693.03;12659241;23;20018;-75
2022/05/03 19:11:50;;;;;;;8.63;4.70;;;;;;;18.85;36.65;97702.06;12640126;23;20333;-75
2022/05/03 19:17:11;;;;;;;8.65;4.60;;;;;;;18.79;36.99;97695.47;12636395;23;20069;-75
2022/05/03 19:22:33;;;;;;;8.70;5.22;;;;;;;18.73;37.16;97698.09;12655808;23;20045;-75
2022/05/03 19:33:33;;;;;;;4.97;4.45;;;;;;;18.65;38.03;97711.94;12676773;23;20072;-74
2022/05/03 19:38:55;;;;;;;7.07;5.13;;;;;;;18.51;39.17;97723.44;12653708;23;20038;-74
2022/05/03 19:44:17;;;;;;;7.57;5.13;;;;;;;17.93;40.63;97725.50;12633906;23;20536;-74
2022/05/03 19:49:38;;;;;;;7.82;4.53;;;;;;;17.56;41.04;97734.63;12653526;23;20018;-75
2022/05/03 19:54:59;;;;;;;6.95;5.32;;;;;;;17.30;41.46;97740.66;12652782;23;20073;-74
2022/05/03 20:00:20;;;;;;;10.45;5.53;;;;;;;17.11;41.59;97747.66;12631002;23;20499;-76
2022/05/03 20:05:43;;;;;;;6.65;5.10;;;;;;;16.99;42.63;97749.22;12632660;23;20025;-74
2022/05/03 20:11:04;;;;;;;7.72;5.15;;;;;;;16.85;43.04;97738.78;12607259;23;20018;-74
2022/05/03 20:16:25;;;;;;;6.45;4.47;;;;;;;16.77;43.88;97746.88;12572923;23;20021;-75
2022/05/03 20:21:47;;;;;;;5.18;3.75;;;;;;;16.78;44.63;97745.53;12573157;23;20330;-74
2022/05/03 20:27:07;;;;;;;5.47;3.95;;;;;;;16.77;44.88;97749.72;12552862;23;20019;-75
2022/05/03 20:32:28;;;;;;;4.72;3.92;;;;;;;16.75;45.26;97746.81;12592185;23;20041;-75
2022/05/03 20:37:49;;;;;;;4.57;3.47;;;;;;;16.70;46.12;97753.66;12612595;23;20022;-75
2022/05/03 20:43:10;;;;;;;4.35;3.17;;;;;;;16.68;46.05;97761.25;12612023;23;20018;-75
2022/05/03 20:54:10;;;;;;;4.60;3.30;;;;;;;16.54;46.46;97762.06;12603254;23;20025;-75
2022/05/03 20:59:30;;;;;;;5.53;3.20;;;;;;;16.45;46.68;97762.34;12575704;23;20019;-75
2022/05/03 21:04:51;;;;;;;3.25;2.80;;;;;;;16.48;46.73;97761.06;12605683;23;20430;-75
2022/05/03 21:10:12;;;;;;;4.53;3.05;;;;;;;16.48;47.04;97761.06;12634694;23;20021;-75
2022/05/03 21:15:33;;;;;;;3.92;3.05;;;;;;;16.51;47.12;97766.19;12658574;23;20381;-75
2022/05/03 21:20:54;;;;;;;5.38;3.00;;;;;;;16.54;47.29;97758.53;12637440;23;20089;-75
2022/05/03 21:26:15;;;;;;;7.43;3.25;;;;;;;16.55;47.26;97757.88;12637971;23;20044;-75
2022/05/03 21:31:38;;;;;;;6.07;3.83;;;;;;;16.46;47.69;97780.72;12678716;23;20014;-75
2022/05/03 21:36:59;;;;;;;5.60;3.67;;;;;;;16.21;47.99;97767.59;12658336;23;20025;-75
2022/05/03 21:42:20;;;;;;;6.03;3.85;;;;;;;15.96;48.34;97771.38;12638024;23;20022;-75
2022/05/03 21:47:41;;;;;;;6.22;3.70;;;;;;;15.78;48.88;97776.88;12678585;23;20025;-75
2022/05/03 21:53:01;;;;;;;7.57;4.13;;;;;;;15.69;49.22;97772.94;12638102;23;20021;-75
2022/05/03 21:58:25;;;;;;;6.68;4.15;;;;;;;15.63;49.48;97769.88;12678093;23;20025;-75
2022/05/03 22:03:50;;;;;;;5.05;3.95;;;;;;;15.60;49.68;97762.66;12633169;23;20021;-75
2022/05/03 22:09:11;;;;;;;5.25;4.28;;;;;;;15.57;50.36;97766.00;12638382;23;20013;-75
2022/05/03 22:14:32;;;;;;;7.00;4.45;;;;;;;15.48;50.37;97776.13;12656998;23;20069;-75
2022/05/03 22:19:52;;;;;;;6.47;5.10;;;;;;;15.36;50.54;97773.44;12657521;23;20017;-75
2022/05/03 22:25:14;;;;;;;6.72;5.20;;;;;;;15.18;50.91;97770.44;12637999;23;20068;-75
2022/05/03 22:30:35;;;;;;;8.93;5.43;;;;;;;15.02;51.43;97764.00;12637147;23;20025;-75
2022/05/03 22:35:56;;;;;;;6.68;5.13;;;;;;;15.00;51.70;97763.19;12636924;23;20013;-75
2022/05/03 22:41:17;;;;;;;6.85;5.43;;;;;;;14.95;51.91;97759.44;12657879;23;20038;-75
2022/05/03 22:46:38;;;;;;;7.50;5.82;;;;;;;14.87;52.21;97761.84;12656687;23;20425;-75
2022/05/03 22:51:58;;;;;;;7.75;5.93;;;;;;;14.78;52.19;97766.31;12636790;23;20021;-75
2022/05/03 22:57:19;;;;;;;7.85;6.57;;;;;;;14.74;52.71;97762.56;12635619;23;20077;-75
2022/05/03 23:02:40;;;;;;;7.63;6.15;;;;;;;14.69;52.66;97760.91;12634920;23;20022;-75
2022/05/03 23:08:00;;;;;;;10.50;6.55;;;;;;;14.62;52.63;97768.28;12655820;23;20024;-75
2022/05/03 23:13:21;;;;;;;10.77;6.68;;;;;;;14.66;53.03;97765.69;12656362;23;20022;-75
2022/05/03 23:18:43;;;;;;;9.07;6.90;;;;;;;14.70;53.14;97763.09;12628736;23;20022;-75
2022/05/03 23:24:04;;;;;;;9.32;6.95;;;;;;;14.73;53.24;97763.91;12636173;23;20018;-75
2022/05/03 23:29:25;;;;;;;9.15;7.53;;;;;;;14.83;53.08;97761.63;12636439;23;20017;-75
2022/05/03 23:40:25;;;;;;;12.15;7.85;;;;;;;14.93;52.71;97769.84;12643577;23;20369;-75
2022/05/03 23:51:27;;;;;;;11.45;7.13;;;;;;;14.99;52.41;97764.53;12631806;23;20018;-75
2022/05/03 23:56:48;;;;;;;9.48;8.00;;;;;;;15.08;52.10;97769.22;12677536;23;20337;-75
